createdAt,value
2019-02-14T00:00:13.752Z,18.5
2019-02-14T00:01:03.581Z,18.5
2019-02-14T00:01:53.841Z,18.5
2019-02-14T00:02:43.199Z,18.5
2019-02-14T00:03:33.684Z,18.5
2019-02-14T00:04:24.029Z,18.5
2019-02-14T00:05:34.659Z,18.5
2019-02-14T00:06:04.142Z,18.5
2019-02-14T00:06:53.957Z,18.5
2019-02-14T00:07:44.261Z,18.5
2019-02-14T00:08:34.031Z,18.5
2019-02-14T00:09:23.898Z,18.5
2019-02-14T00:10:13.949Z,18.5
2019-02-14T00:11:04.019Z,18.5
2019-02-14T00:11:53.774Z,18.5
2019-02-14T00:12:44.119Z,18.5
2019-02-14T00:13:33.896Z,18.5
2019-02-14T00:14:24.498Z,18.5
2019-02-14T00:15:14.233Z,18.5
2019-02-14T00:16:04.836Z,18.5
2019-02-14T00:16:54.323Z,18.5
2019-02-14T00:17:44.351Z,18.5
2019-02-14T00:18:34.446Z,18.5
2019-02-14T00:19:24.793Z,18.5
2019-02-14T00:20:14.081Z,18.5
2019-02-14T00:21:04.679Z,18.5
2019-02-14T00:21:54.477Z,18.5
2019-02-14T00:22:44.268Z,18.5
2019-02-14T00:23:34.248Z,18.4
2019-02-14T00:24:24.647Z,18.5
2019-02-14T00:25:14.695Z,18.4
2019-02-14T00:26:04.758Z,18.5
2019-02-14T00:26:54.833Z,18.4
2019-02-14T00:27:45.342Z,18.4
2019-02-14T00:28:35.228Z,18.4
2019-02-14T00:29:24.989Z,18.5
2019-02-14T00:30:15.537Z,18.4
2019-02-14T00:31:04.823Z,18.4
2019-02-14T00:31:55.167Z,18.4
2019-02-14T00:32:44.453Z,18.4
2019-02-14T00:33:35.740Z,18.4
2019-02-14T00:34:27.065Z,18.4
2019-02-14T00:35:15.899Z,18.4
2019-02-14T00:36:05.170Z,18.4
2019-02-14T00:36:55.229Z,18.4
2019-02-14T00:37:45.822Z,18.4
2019-02-14T00:38:36.081Z,18.4
2019-02-14T00:39:25.880Z,18.4
2019-02-14T00:40:16.705Z,18.4
2019-02-14T00:41:06.261Z,18.4
2019-02-14T00:41:56.762Z,18.4
2019-02-14T00:42:46.367Z,18.4
2019-02-14T00:43:36.147Z,18.4
2019-02-14T00:44:26.657Z,18.4
2019-02-14T00:45:16.775Z,18.4
2019-02-14T00:46:06.372Z,18.4
2019-02-14T00:46:56.122Z,18.4
2019-02-14T00:47:46.720Z,18.4
2019-02-14T00:48:36.790Z,18.4
2019-02-14T00:49:26.336Z,18.4
2019-02-14T00:50:16.876Z,18.4
2019-02-14T00:51:05.553Z,18.4
2019-02-14T00:51:57.054Z,18.4
2019-02-14T00:52:47.054Z,18.4
2019-02-14T00:53:37.117Z,18.4
2019-02-14T00:54:27.457Z,18.4
2019-02-14T00:55:17.231Z,18.4
2019-02-14T00:56:07.619Z,18.4
2019-02-14T00:56:57.064Z,18.4
2019-02-14T00:57:47.353Z,18.4
2019-02-14T00:58:37.174Z,18.4
2019-02-14T00:59:27.758Z,18.4
2019-02-14T01:00:17.301Z,18.4
2019-02-14T01:01:07.624Z,18.4
2019-02-14T01:01:57.686Z,18.4
2019-02-14T01:02:47.783Z,18.4
2019-02-14T01:03:37.839Z,18.4
2019-02-14T01:04:27.613Z,18.4
2019-02-14T01:05:19.873Z,18.4
2019-02-14T01:06:07.701Z,18.4
2019-02-14T01:06:58.065Z,18.4
2019-02-14T01:07:48.434Z,18.4
2019-02-14T01:08:37.873Z,18.4
2019-02-14T01:09:28.493Z,18.4
2019-02-14T01:10:18.320Z,18.4
2019-02-14T01:11:08.307Z,18.4
2019-02-14T01:11:58.387Z,18.4
2019-02-14T01:12:48.577Z,18.4
2019-02-14T01:13:38.469Z,18.4
2019-02-14T01:14:28.307Z,18.4
2019-02-14T01:15:18.596Z,18.4
2019-02-14T01:16:08.383Z,18.4
2019-02-14T01:16:58.758Z,18.4
2019-02-14T01:17:49.040Z,18.4
2019-02-14T01:18:38.732Z,18.4
2019-02-14T01:19:28.867Z,18.4
2019-02-14T01:20:18.661Z,18.4
2019-02-14T01:21:08.447Z,18.4
2019-02-14T01:21:59.032Z,18.4
2019-02-14T01:22:49.372Z,18.4
2019-02-14T01:24:28.944Z,18.4
2019-02-14T01:25:19.569Z,18.4
2019-02-14T01:26:09.557Z,18.4
2019-02-14T01:26:59.666Z,18.4
2019-02-14T01:27:49.181Z,18.4
2019-02-14T01:28:39.794Z,18.4
2019-02-14T01:29:29.564Z,18.3
2019-02-14T01:30:19.375Z,18.4
2019-02-14T01:31:09.674Z,18.3
2019-02-14T01:31:59.764Z,18.4
2019-02-14T01:32:49.781Z,18.4
2019-02-14T01:33:39.849Z,18.3
2019-02-14T01:34:29.353Z,18.4
2019-02-14T01:35:18.856Z,18.3
2019-02-14T01:36:10.021Z,18.3
2019-02-14T01:37:00.353Z,18.4
2019-02-14T01:37:51.119Z,18.4
2019-02-14T01:38:39.660Z,18.3
2019-02-14T01:39:29.968Z,18.3
2019-02-14T01:40:20.318Z,18.4
2019-02-14T01:41:10.358Z,18.4
2019-02-14T01:42:00.428Z,18.4
2019-02-14T01:42:50.781Z,18.4
2019-02-14T01:43:40.853Z,18.3
2019-02-14T01:44:30.315Z,18.3
2019-02-14T01:45:21.338Z,18.3
2019-02-14T01:46:10.704Z,18.3
2019-02-14T01:47:00.757Z,18.3
2019-02-14T01:47:51.151Z,18.3
2019-02-14T01:48:40.597Z,18.3
2019-02-14T01:49:30.595Z,18.4
2019-02-14T01:50:21.268Z,18.3
2019-02-14T01:51:10.765Z,18.3
2019-02-14T01:52:00.566Z,18.4
2019-02-14T01:52:51.157Z,18.3
2019-02-14T01:53:41.496Z,18.3
2019-02-14T01:54:30.733Z,18.3
2019-02-14T01:55:21.085Z,18.3
2019-02-14T01:56:11.420Z,18.3
2019-02-14T01:57:01.456Z,18.4
2019-02-14T01:57:51.225Z,18.3
2019-02-14T01:58:42.185Z,18.3
2019-02-14T01:59:31.336Z,18.3
2019-02-14T02:00:21.675Z,18.3
2019-02-14T02:01:11.445Z,18.3
2019-02-14T02:02:02.126Z,18.3
2019-02-14T02:02:51.898Z,18.3
2019-02-14T02:03:41.672Z,18.3
2019-02-14T02:04:31.392Z,18.3
2019-02-14T02:05:22.467Z,18.3
2019-02-14T02:06:12.339Z,18.3
2019-02-14T02:07:02.079Z,18.3
2019-02-14T02:07:52.202Z,18.3
2019-02-14T02:08:42.519Z,18.3
2019-02-14T02:09:31.749Z,18.3
2019-02-14T02:10:21.301Z,18.3
2019-02-14T02:11:12.429Z,18.3
2019-02-14T02:12:52.803Z,18.3
2019-02-14T02:13:42.591Z,18.3
2019-02-14T02:14:32.914Z,18.3
2019-02-14T02:15:37.344Z,18.3
2019-02-14T02:16:13.126Z,18.3
2019-02-14T02:17:02.855Z,18.3
2019-02-14T02:17:52.607Z,18.3
2019-02-14T02:18:42.926Z,18.3
2019-02-14T02:19:32.961Z,18.3
2019-02-14T02:20:23.081Z,18.3
2019-02-14T02:21:13.094Z,18.3
2019-02-14T02:22:03.386Z,18.3
2019-02-14T02:22:52.919Z,18.3
2019-02-14T02:23:43.261Z,18.3
2019-02-14T02:24:33.356Z,18.3
2019-02-14T02:25:23.391Z,18.3
2019-02-14T02:26:14.356Z,18.3
2019-02-14T02:27:03.500Z,18.3
2019-02-14T02:27:52.712Z,18.3
2019-02-14T02:28:43.610Z,18.3
2019-02-14T02:29:33.932Z,18.3
2019-02-14T02:30:23.516Z,18.3
2019-02-14T02:31:13.401Z,18.3
2019-02-14T02:32:03.607Z,18.3
2019-02-14T02:32:54.238Z,18.3
2019-02-14T02:33:43.895Z,18.3
2019-02-14T02:34:33.743Z,18.3
2019-02-14T02:35:24.360Z,18.3
2019-02-14T02:36:14.144Z,18.3
2019-02-14T02:37:03.702Z,18.3
2019-02-14T02:37:54.283Z,18.3
2019-02-14T02:38:43.885Z,18.3
2019-02-14T02:39:34.101Z,18.3
2019-02-14T02:40:24.699Z,18.3
2019-02-14T02:41:13.981Z,18.3
2019-02-14T02:42:03.775Z,18.3
2019-02-14T02:42:54.850Z,18.3
2019-02-14T02:43:44.412Z,18.3
2019-02-14T02:44:34.242Z,18.3
2019-02-14T02:45:24.297Z,18.3
2019-02-14T02:46:14.841Z,18.3
2019-02-14T02:47:54.919Z,18.3
2019-02-14T02:48:44.510Z,18.3
2019-02-14T02:49:35.117Z,18.3
2019-02-14T02:50:25.395Z,18.3
2019-02-14T02:51:14.878Z,18.3
2019-02-14T02:52:05.747Z,18.3
2019-02-14T02:52:55.256Z,18.3
2019-02-14T02:53:45.591Z,18.3
2019-02-14T02:54:35.435Z,18.3
2019-02-14T02:55:25.162Z,18.3
2019-02-14T02:56:15.764Z,18.3
2019-02-14T02:57:05.297Z,18.3
2019-02-14T02:57:55.996Z,18.3
2019-02-14T02:58:45.591Z,18.3
2019-02-14T02:59:35.992Z,18.3
2019-02-14T03:00:26.094Z,18.3
2019-02-14T03:01:15.861Z,18.3
2019-02-14T03:02:06.168Z,18.3
2019-02-14T03:02:55.969Z,18.3
2019-02-14T03:03:46.029Z,18.3
2019-02-14T03:04:34.943Z,18.3
2019-02-14T03:08:09.013Z,18.3
2019-02-14T03:08:59.113Z,18.3
2019-02-14T03:09:49.485Z,18.3
2019-02-14T03:10:39.184Z,18.3
2019-02-14T03:11:29.500Z,18.4
2019-02-14T03:12:18.768Z,18.4
2019-02-14T03:13:09.069Z,18.3
2019-02-14T03:13:59.460Z,18.4
2019-02-14T03:14:49.446Z,18.4
2019-02-14T03:15:39.212Z,18.4
2019-02-14T03:16:29.918Z,18.3
2019-02-14T03:17:19.144Z,18.4
2019-02-14T03:18:09.446Z,18.4
2019-02-14T03:18:59.244Z,18.4
2019-02-14T03:19:49.767Z,18.4
2019-02-14T03:20:39.329Z,18.4
2019-02-14T03:21:28.837Z,18.4
2019-02-14T03:22:19.734Z,18.4
2019-02-14T03:23:09.730Z,18.4
2019-02-14T03:24:00.047Z,18.4
2019-02-14T03:24:50.420Z,18.4
2019-02-14T03:25:40.432Z,18.4
2019-02-14T03:26:30.226Z,18.4
2019-02-14T03:27:20.277Z,18.4
2019-02-14T03:28:10.334Z,18.4
2019-02-14T03:29:00.113Z,18.4
2019-02-14T03:29:50.447Z,18.4
2019-02-14T03:30:40.006Z,18.4
2019-02-14T03:31:30.870Z,18.4
2019-02-14T03:32:20.726Z,18.4
2019-02-14T03:33:10.544Z,18.4
2019-02-14T03:34:00.737Z,18.4
2019-02-14T03:34:50.229Z,18.4
2019-02-14T03:35:40.878Z,18.4
2019-02-14T03:36:30.622Z,18.4
2019-02-14T03:37:20.681Z,18.4
2019-02-14T03:38:11.018Z,18.4
2019-02-14T03:39:01.351Z,18.4
2019-02-14T03:39:51.219Z,18.4
2019-02-14T03:40:41.186Z,18.4
2019-02-14T03:41:31.236Z,18.4
2019-02-14T03:42:21.304Z,18.4
2019-02-14T03:43:10.868Z,18.4
2019-02-14T03:44:00.925Z,18.4
2019-02-14T03:44:50.715Z,18.4
2019-02-14T03:45:41.249Z,18.4
2019-02-14T03:46:31.378Z,18.4
2019-02-14T03:47:21.160Z,18.4
2019-02-14T03:48:11.203Z,18.4
2019-02-14T03:49:01.268Z,18.4
2019-02-14T03:49:52.093Z,18.4
2019-02-14T03:50:41.588Z,18.4
2019-02-14T03:51:32.203Z,18.4
2019-02-14T03:52:21.535Z,18.4
2019-02-14T03:53:12.295Z,18.4
2019-02-14T03:54:01.613Z,18.4
2019-02-14T03:54:52.425Z,18.4
2019-02-14T03:55:42.199Z,18.4
2019-02-14T03:56:32.037Z,18.4
2019-02-14T03:57:21.820Z,18.4
2019-02-14T03:58:12.169Z,18.4
2019-02-14T03:59:02.717Z,18.4
2019-02-14T03:59:52.222Z,18.4
2019-02-14T04:00:42.258Z,18.4
2019-02-14T04:01:32.805Z,18.4
2019-02-14T04:02:22.654Z,18.4
2019-02-14T04:03:12.442Z,18.4
2019-02-14T04:04:02.260Z,18.4
2019-02-14T04:04:53.097Z,18.4
2019-02-14T04:05:42.879Z,18.4
2019-02-14T04:06:33.227Z,18.4
2019-02-14T04:07:23.003Z,18.4
2019-02-14T04:08:13.312Z,18.4
2019-02-14T04:09:03.377Z,18.4
2019-02-14T04:09:53.157Z,18.4
2019-02-14T04:10:42.946Z,18.4
2019-02-14T04:11:32.754Z,18.4
2019-02-14T04:12:23.344Z,18.4
2019-02-14T04:13:13.666Z,18.4
2019-02-14T04:14:03.446Z,18.4
2019-02-14T04:14:53.784Z,18.4
2019-02-14T04:15:43.347Z,18.4
2019-02-14T04:16:33.894Z,18.4
2019-02-14T04:17:23.934Z,18.4
2019-02-14T04:18:13.250Z,18.4
2019-02-14T04:19:03.296Z,18.4
2019-02-14T04:19:53.373Z,18.4
2019-02-14T04:20:43.136Z,18.4
2019-02-14T04:21:33.954Z,18.4
2019-02-14T04:22:24.284Z,18.4
2019-02-14T04:23:14.341Z,18.4
2019-02-14T04:24:03.600Z,18.4
2019-02-14T04:24:54.179Z,18.4
2019-02-14T04:25:44.287Z,18.4
2019-02-14T04:26:34.093Z,18.4
2019-02-14T04:27:24.367Z,18.4
2019-02-14T04:28:14.381Z,18.4
2019-02-14T04:29:04.500Z,18.4
2019-02-14T04:29:54.528Z,18.4
2019-02-14T04:30:44.879Z,18.4
2019-02-14T04:31:34.906Z,18.4
2019-02-14T04:32:24.962Z,18.4
2019-02-14T04:33:14.468Z,18.4
2019-02-14T04:34:05.083Z,18.4
2019-02-14T04:34:55.148Z,18.4
2019-02-14T04:35:45.238Z,18.4
2019-02-14T04:36:39.638Z,18.4
2019-02-14T04:37:25.040Z,18.4
2019-02-14T04:38:14.872Z,18.4
2019-02-14T04:39:05.151Z,18.4
2019-02-14T04:39:55.515Z,18.4
2019-02-14T04:40:45.528Z,18.4
2019-02-14T04:41:35.308Z,18.4
2019-02-14T04:42:25.647Z,18.4
2019-02-14T04:43:15.432Z,18.3
2019-02-14T04:44:05.470Z,18.4
2019-02-14T04:44:55.257Z,18.4
2019-02-14T04:45:45.878Z,18.4
2019-02-14T04:46:35.657Z,18.4
2019-02-14T04:47:25.975Z,18.4
2019-02-14T04:48:15.759Z,18.4
2019-02-14T04:49:06.096Z,18.4
2019-02-14T04:49:56.137Z,18.4
2019-02-14T04:50:46.202Z,18.4
2019-02-14T04:51:36.002Z,18.4
2019-02-14T04:52:26.320Z,18.4
2019-02-14T04:53:16.094Z,18.4
2019-02-14T04:54:06.441Z,18.4
2019-02-14T04:54:56.499Z,18.4
2019-02-14T04:55:45.983Z,18.4
2019-02-14T04:56:36.321Z,18.4
2019-02-14T04:57:26.379Z,18.4
2019-02-14T04:58:15.892Z,18.4
2019-02-14T04:59:06.772Z,18.4
2019-02-14T04:59:56.549Z,18.4
2019-02-14T05:00:46.354Z,18.4
2019-02-14T05:01:36.706Z,18.4
2019-02-14T05:02:26.726Z,18.4
2019-02-14T05:03:16.781Z,18.4
2019-02-14T05:04:07.113Z,18.4
2019-02-14T05:04:56.898Z,18.5
2019-02-14T05:05:46.969Z,18.5
2019-02-14T05:06:45.146Z,18.5
2019-02-14T05:07:27.336Z,18.5
2019-02-14T05:08:17.123Z,18.5
2019-02-14T05:09:07.451Z,18.4
2019-02-14T05:09:57.234Z,18.5
2019-02-14T05:10:47.568Z,18.5
2019-02-14T05:11:37.619Z,18.5
2019-02-14T05:12:29.060Z,18.5
2019-02-14T05:13:17.453Z,18.4
2019-02-14T05:14:07.246Z,18.5
2019-02-14T05:14:57.293Z,18.4
2019-02-14T05:15:47.903Z,18.5
2019-02-14T05:16:37.963Z,18.5
2019-02-14T05:17:28.008Z,18.5
2019-02-14T05:18:18.133Z,18.5
2019-02-14T05:19:07.909Z,18.4
2019-02-14T05:19:57.948Z,18.5
2019-02-14T05:20:48.240Z,18.4
2019-02-14T05:21:37.743Z,18.5
2019-02-14T05:22:27.800Z,18.5
2019-02-14T05:23:18.408Z,18.4
2019-02-14T05:24:08.183Z,18.5
2019-02-14T05:24:58.312Z,18.5
2019-02-14T05:25:48.575Z,18.5
2019-02-14T05:26:38.357Z,18.5
2019-02-14T05:27:28.465Z,18.5
2019-02-14T05:28:18.482Z,18.4
2019-02-14T05:29:08.818Z,18.5
2019-02-14T05:29:57.765Z,18.4
2019-02-14T05:30:48.652Z,18.5
2019-02-14T05:31:40.255Z,18.5
2019-02-14T05:32:28.760Z,18.4
2019-02-14T05:33:19.142Z,18.5
2019-02-14T05:34:09.137Z,18.5
2019-02-14T05:34:58.663Z,18.4
2019-02-14T05:35:49.252Z,18.5
2019-02-14T05:36:38.766Z,18.4
2019-02-14T05:37:29.115Z,18.4
2019-02-14T05:38:19.425Z,18.5
2019-02-14T05:39:09.487Z,18.5
2019-02-14T05:39:59.539Z,18.6
2019-02-14T05:40:49.324Z,18.6
2019-02-14T05:43:19.281Z,18.8
2019-02-14T05:44:09.543Z,18.8
2019-02-14T05:44:59.878Z,18.8
2019-02-14T05:45:49.666Z,18.9
2019-02-14T05:46:39.708Z,18.9
2019-02-14T05:47:30.054Z,18.9
2019-02-14T05:48:20.152Z,18.8
2019-02-14T05:49:10.162Z,18.8
2019-02-14T05:49:59.664Z,18.8
2019-02-14T05:50:49.997Z,18.8
2019-02-14T05:51:40.329Z,18.8
2019-02-14T05:52:30.379Z,18.8
2019-02-14T05:53:20.170Z,18.8
2019-02-14T05:54:10.214Z,18.8
2019-02-14T05:55:00.382Z,18.8
2019-02-14T05:55:50.357Z,18.8
2019-02-14T05:56:40.669Z,18.8
2019-02-14T05:59:10.272Z,18.8
2019-02-14T06:06:08.809Z,18.6
2019-02-14T06:16:09.755Z,18.6
2019-02-14T06:20:19.332Z,18.6
2019-02-14T06:22:50.202Z,18.6
2019-02-14T06:24:30.028Z,18.6
2019-02-14T06:25:19.660Z,18.6
2019-02-14T06:26:09.670Z,18.6
2019-02-14T06:27:50.267Z,18.6
2019-02-14T06:28:40.235Z,18.6
2019-02-14T06:29:44.749Z,18.6
2019-02-14T06:30:20.717Z,18.6
2019-02-14T06:31:10.765Z,18.6
2019-02-14T06:32:00.582Z,18.6
2019-02-14T06:32:50.615Z,18.6
2019-02-14T06:33:40.436Z,18.6
2019-02-14T06:34:30.162Z,18.6
2019-02-14T06:35:21.102Z,18.6
2019-02-14T06:36:10.519Z,18.6
2019-02-14T06:37:00.350Z,18.6
2019-02-14T06:37:50.681Z,18.6
2019-02-14T06:38:41.287Z,18.6
2019-02-14T06:39:31.324Z,18.6
2019-02-14T06:40:21.109Z,18.6
2019-02-14T06:41:11.174Z,18.6
2019-02-14T06:42:00.954Z,18.6
2019-02-14T06:43:41.066Z,18.6
2019-02-14T06:45:21.414Z,18.6
2019-02-14T06:46:10.951Z,18.6
2019-02-14T06:47:01.808Z,18.6
2019-02-14T06:47:51.368Z,18.6
2019-02-14T06:48:41.958Z,18.6
2019-02-14T06:49:31.464Z,18.6
2019-02-14T06:50:21.814Z,18.6
2019-02-14T06:51:12.074Z,18.6
2019-02-14T06:52:01.707Z,18.6
2019-02-14T06:52:51.707Z,18.6
2019-02-14T06:53:42.070Z,18.6
2019-02-14T06:54:32.350Z,18.6
2019-02-14T06:55:22.417Z,18.6
2019-02-14T06:56:12.526Z,18.6
2019-02-14T06:57:02.553Z,18.6
2019-02-14T06:57:51.831Z,18.6
2019-02-14T06:58:42.361Z,18.6
2019-02-14T06:59:32.930Z,18.6
2019-02-14T07:00:22.213Z,18.6
2019-02-14T07:01:12.250Z,18.6
2019-02-14T07:02:02.873Z,18.6
2019-02-14T07:02:52.647Z,18.6
2019-02-14T07:03:42.719Z,18.6
2019-02-14T07:07:07.694Z,18.6
2019-02-14T07:07:28.320Z,18.6
2019-02-14T07:08:18.105Z,18.6
2019-02-14T07:09:08.432Z,18.6
2019-02-14T07:09:58.209Z,18.6
2019-02-14T07:10:48.352Z,18.6
2019-02-14T07:11:38.610Z,18.6
2019-02-14T07:12:27.827Z,18.6
2019-02-14T07:13:18.460Z,18.6
2019-02-14T07:14:08.499Z,18.6
2019-02-14T07:14:58.602Z,18.6
2019-02-14T07:15:48.612Z,18.6
2019-02-14T07:16:38.960Z,18.6
2019-02-14T07:17:29.009Z,18.6
2019-02-14T07:18:17.945Z,18.6
2019-02-14T07:19:08.834Z,18.6
2019-02-14T07:19:58.899Z,18.6
2019-02-14T07:20:49.217Z,18.6
2019-02-14T07:21:39.336Z,18.6
2019-02-14T07:22:29.344Z,18.6
2019-02-14T07:23:18.286Z,18.6
2019-02-14T07:24:08.632Z,18.6
2019-02-14T07:24:58.966Z,18.6
2019-02-14T07:25:49.581Z,18.5
2019-02-14T07:26:38.884Z,18.6
2019-02-14T07:27:29.156Z,18.6
2019-02-14T07:28:19.454Z,18.6
2019-02-14T07:29:09.545Z,18.6
2019-02-14T07:29:59.876Z,18.6
2019-02-14T07:30:49.616Z,18.5
2019-02-14T07:31:39.731Z,18.5
2019-02-14T07:32:29.763Z,18.6
2019-02-14T07:33:20.117Z,18.6
2019-02-14T07:34:09.881Z,18.5
2019-02-14T07:34:59.896Z,18.5
2019-02-14T07:35:49.971Z,18.5
2019-02-14T07:36:40.321Z,18.5
2019-02-14T07:37:30.471Z,18.5
2019-02-14T07:38:20.158Z,18.5
2019-02-14T07:39:12.088Z,18.5
2019-02-14T07:40:00.008Z,18.5
2019-02-14T07:40:50.062Z,18.5
2019-02-14T07:41:40.678Z,18.5
2019-02-14T07:42:30.155Z,18.5
2019-02-14T07:43:20.508Z,18.5
2019-02-14T07:44:10.255Z,18.5
2019-02-14T07:45:00.585Z,18.5
2019-02-14T07:45:50.441Z,18.5
2019-02-14T07:46:40.727Z,18.5
2019-02-14T07:47:30.761Z,18.5
2019-02-14T07:48:20.890Z,18.5
2019-02-14T07:49:11.160Z,18.4
2019-02-14T07:50:00.483Z,18.4
2019-02-14T07:50:51.285Z,18.4
2019-02-14T07:51:41.324Z,18.4
2019-02-14T07:52:30.862Z,18.5
2019-02-14T07:53:21.439Z,18.4
2019-02-14T07:54:11.487Z,18.4
2019-02-14T07:55:01.680Z,18.4
2019-02-14T07:55:51.355Z,18.5
2019-02-14T07:56:41.669Z,18.4
2019-02-14T07:57:31.547Z,18.4
2019-02-14T07:58:21.495Z,18.4
2019-02-14T07:59:11.284Z,18.4
2019-02-14T08:00:01.721Z,18.4
2019-02-14T08:00:51.672Z,18.4
2019-02-14T08:01:41.444Z,18.4
2019-02-14T08:02:31.567Z,18.4
2019-02-14T08:03:21.304Z,18.4
2019-02-14T08:04:11.410Z,18.4
2019-02-14T08:05:01.186Z,18.4
2019-02-14T08:05:52.002Z,18.4
2019-02-14T08:06:41.788Z,18.4
2019-02-14T08:07:39.315Z,18.4
2019-02-14T08:08:22.184Z,18.4
2019-02-14T08:09:12.306Z,18.4
2019-02-14T08:10:01.764Z,18.4
2019-02-14T08:10:51.793Z,18.4
2019-02-14T08:11:42.406Z,18.4
2019-02-14T08:12:32.485Z,18.4
2019-02-14T08:13:22.813Z,18.4
2019-02-14T08:14:12.304Z,18.4
2019-02-14T08:15:02.456Z,18.4
2019-02-14T08:15:52.468Z,18.4
2019-02-14T08:16:42.754Z,18.4
2019-02-14T08:17:33.078Z,18.4
2019-02-14T08:18:22.576Z,18.4
2019-02-14T08:19:12.934Z,18.4
2019-02-14T08:20:02.722Z,18.4
2019-02-14T08:20:53.040Z,18.4
2019-02-14T08:21:43.364Z,18.4
2019-02-14T08:22:33.155Z,18.4
2019-02-14T08:23:22.917Z,18.4
2019-02-14T08:24:13.328Z,18.4
2019-02-14T08:25:03.176Z,18.4
2019-02-14T08:25:53.141Z,18.4
2019-02-14T08:26:43.417Z,18.4
2019-02-14T08:27:32.445Z,18.3
2019-02-14T08:28:23.605Z,18.4
2019-02-14T08:29:13.400Z,18.3
2019-02-14T08:30:03.955Z,18.4
2019-02-14T08:30:53.451Z,18.3
2019-02-14T08:31:43.838Z,18.3
2019-02-14T08:32:33.890Z,18.3
2019-02-14T08:33:23.635Z,18.3
2019-02-14T08:34:14.000Z,18.3
2019-02-14T08:35:04.005Z,18.3
2019-02-14T08:35:53.773Z,18.3
2019-02-14T08:36:44.417Z,18.4
2019-02-14T08:37:34.434Z,18.3
2019-02-14T08:38:23.967Z,18.3
2019-02-14T08:39:14.290Z,18.3
2019-02-14T08:40:04.664Z,18.3
2019-02-14T08:40:56.210Z,18.3
2019-02-14T08:41:44.719Z,18.3
2019-02-14T08:42:34.779Z,18.3
2019-02-14T08:43:24.911Z,18.3
2019-02-14T08:44:14.353Z,18.3
2019-02-14T08:45:04.143Z,18.3
2019-02-14T08:45:55.006Z,18.3
2019-02-14T08:46:45.074Z,18.3
2019-02-14T08:47:35.132Z,18.3
2019-02-14T08:48:24.346Z,18.3
2019-02-14T08:49:15.296Z,18.3
2019-02-14T08:50:05.034Z,18.3
2019-02-14T08:50:55.116Z,18.3
2019-02-14T08:51:45.131Z,18.3
2019-02-14T08:52:35.463Z,18.3
2019-02-14T08:53:25.240Z,18.3
2019-02-14T08:54:15.073Z,18.3
2019-02-14T08:55:05.091Z,18.3
2019-02-14T08:55:55.433Z,18.3
2019-02-14T08:56:44.623Z,18.3
2019-02-14T08:57:35.841Z,18.3
2019-02-14T08:58:25.873Z,18.3
2019-02-14T08:59:15.961Z,18.3
2019-02-14T09:00:05.435Z,18.3
2019-02-14T09:00:55.470Z,18.4
2019-02-14T09:01:45.340Z,16.2
2019-02-14T09:02:35.384Z,35
2019-02-14T09:03:25.940Z,57.8
2019-02-14T09:04:16.295Z,63.9
2019-02-14T09:05:06.048Z,64.8
2019-02-14T09:05:56.370Z,64
2019-02-14T09:06:45.869Z,60.9
2019-02-14T09:07:36.515Z,58.7
2019-02-14T09:08:26.536Z,57.2
2019-02-14T09:09:16.060Z,56.1
2019-02-14T09:10:06.365Z,55
2019-02-14T09:10:56.680Z,54.1
2019-02-14T09:11:46.772Z,53.1
2019-02-14T09:12:38.452Z,52.3
2019-02-14T09:13:26.880Z,51.4
2019-02-14T09:14:16.684Z,50.5
2019-02-14T09:15:06.193Z,49.8
2019-02-14T09:15:56.787Z,48.9
2019-02-14T09:16:46.827Z,48.2
2019-02-14T09:17:36.898Z,47.5
2019-02-14T09:18:27.230Z,46.8
2019-02-14T09:19:17.085Z,46.1
2019-02-14T09:20:07.056Z,45.4
2019-02-14T09:20:56.897Z,44.8
2019-02-14T09:21:46.912Z,44.2
2019-02-14T09:22:37.504Z,43.6
2019-02-14T09:23:27.019Z,43.1
2019-02-14T09:24:17.344Z,42.4
2019-02-14T09:25:07.450Z,41.9
2019-02-14T09:25:56.889Z,41.4
2019-02-14T09:26:47.574Z,40.9
2019-02-14T09:27:37.549Z,40.4
2019-02-14T09:28:27.064Z,39.9
2019-02-14T09:29:17.954Z,39.4
2019-02-14T09:30:08.011Z,38.9
2019-02-14T09:30:57.519Z,38.6
2019-02-14T09:31:47.843Z,38.1
2019-02-14T09:32:37.934Z,37.7
2019-02-14T09:33:28.263Z,37.3
2019-02-14T09:34:18.015Z,36.9
2019-02-14T09:35:07.796Z,36.7
2019-02-14T09:35:57.848Z,43.1
2019-02-14T09:36:47.894Z,51.4
2019-02-14T09:37:38.247Z,65.3
2019-02-14T09:38:28.313Z,67.7
2019-02-14T09:39:18.358Z,65.8
2019-02-14T09:40:08.461Z,64.2
2019-02-14T09:40:58.463Z,62.9
2019-02-14T09:41:48.297Z,61.7
2019-02-14T09:42:38.644Z,60.6
2019-02-14T09:43:33.223Z,59.5
2019-02-14T09:44:18.473Z,58.4
2019-02-14T09:45:08.586Z,57.5
2019-02-14T09:45:59.106Z,56.5
2019-02-14T09:46:49.150Z,55.6
2019-02-14T09:47:39.233Z,54.6
2019-02-14T09:48:28.792Z,53.8
2019-02-14T09:49:19.087Z,52.9
2019-02-14T09:50:08.872Z,52.1
2019-02-14T09:50:59.307Z,51.3
2019-02-14T09:51:49.205Z,50.4
2019-02-14T09:52:39.560Z,49.7
2019-02-14T09:53:29.343Z,48.9
2019-02-14T09:54:19.434Z,48.3
2019-02-14T09:55:09.734Z,47.6
2019-02-14T09:55:59.880Z,50.3
2019-02-14T09:56:49.611Z,52.9
2019-02-14T09:57:39.935Z,64.8
2019-02-14T09:58:29.463Z,69.8
2019-02-14T09:59:20.038Z,69
2019-02-14T10:00:10.087Z,66.6
2019-02-14T10:01:00.198Z,64.3
2019-02-14T10:01:49.649Z,62.9
2019-02-14T10:02:40.017Z,61.9
2019-02-14T10:03:30.014Z,61.2
2019-02-14T10:04:20.373Z,60.1
2019-02-14T10:05:10.176Z,59.1
2019-02-14T10:07:08.986Z,56.9
2019-02-14T10:07:59.001Z,55.8
2019-02-14T10:08:49.063Z,54.7
2019-02-14T10:09:38.898Z,53.9
2019-02-14T10:10:29.191Z,53.1
2019-02-14T10:11:18.943Z,52.3
2019-02-14T10:12:08.836Z,51.5
2019-02-14T10:12:59.014Z,50.8
2019-02-14T10:13:49.067Z,53.1
2019-02-14T10:15:29.473Z,68
2019-02-14T10:16:19.534Z,70.6
2019-02-14T10:17:09.556Z,70.3
2019-02-14T10:17:59.075Z,67.4
2019-02-14T10:18:49.398Z,64.9
2019-02-14T10:19:39.458Z,63.2
2019-02-14T10:20:29.517Z,62.3
2019-02-14T10:21:19.849Z,61.4
2019-02-14T10:22:09.393Z,60.6
2019-02-14T10:22:59.798Z,59.6
2019-02-14T10:24:40.248Z,57.6
2019-02-14T10:25:29.579Z,56.6
2019-02-14T10:26:19.906Z,55.6
2019-02-14T10:27:09.955Z,54.8
2019-02-14T10:27:59.483Z,53.9
2019-02-14T10:28:49.550Z,54.8
2019-02-14T10:29:40.425Z,56.3
2019-02-14T10:30:30.193Z,65.8
2019-02-14T10:31:20.233Z,70.3
2019-02-14T10:32:10.285Z,71
2019-02-14T10:33:00.399Z,69.8
2019-02-14T10:33:50.780Z,66.9
2019-02-14T10:34:40.498Z,63.8
2019-02-14T10:35:30.516Z,62.2
2019-02-14T10:36:20.320Z,61.2
2019-02-14T10:37:10.679Z,60.4
2019-02-14T10:38:01.019Z,59.8
2019-02-14T10:38:51.315Z,58.8
2019-02-14T10:39:40.821Z,57.8
2019-02-14T10:40:30.334Z,56.8
2019-02-14T10:41:20.984Z,55.9
2019-02-14T10:42:10.989Z,55
2019-02-14T10:43:00.771Z,54.5
2019-02-14T10:43:52.246Z,55.9
2019-02-14T10:44:41.144Z,63.1
2019-02-14T10:45:31.500Z,69.6
2019-02-14T10:46:20.987Z,71.2
2019-02-14T10:47:10.492Z,71
2019-02-14T10:48:01.372Z,68.8
2019-02-14T10:48:51.463Z,65.5
2019-02-14T10:49:41.214Z,63
2019-02-14T10:50:31.334Z,61.4
2019-02-14T10:51:21.598Z,60.1
2019-02-14T10:52:11.926Z,59.2
2019-02-14T10:53:01.772Z,58.5
2019-02-14T10:53:51.482Z,57.8
2019-02-14T10:54:42.096Z,57
2019-02-14T10:55:32.178Z,56.1
2019-02-14T10:56:21.935Z,56.3
2019-02-14T10:57:12.311Z,58
2019-02-14T10:58:02.046Z,65.7
2019-02-14T10:58:52.382Z,70
2019-02-14T10:59:42.439Z,70.8
2019-02-14T11:00:32.023Z,70.3
2019-02-14T11:01:22.273Z,67.9
2019-02-14T11:02:12.605Z,65.1
2019-02-14T11:03:02.681Z,63.2
2019-02-14T11:03:52.445Z,63.2
2019-02-14T11:04:41.953Z,64.4
2019-02-14T11:05:32.830Z,65.8
2019-02-14T11:06:22.625Z,66.6
2019-02-14T11:07:14.627Z,66.9
2019-02-14T11:08:02.798Z,66.5
2019-02-14T11:08:53.072Z,65.9
2019-02-14T11:09:42.566Z,65.2
2019-02-14T11:10:33.194Z,64.9
2019-02-14T11:11:22.677Z,64.9
2019-02-14T11:12:12.748Z,65.3
2019-02-14T11:13:03.370Z,65.7
2019-02-14T11:13:53.397Z,65.9
2019-02-14T11:14:43.187Z,66.1
2019-02-14T11:15:33.255Z,66
2019-02-14T11:16:23.585Z,65.9
2019-02-14T11:17:13.635Z,65.8
2019-02-14T11:18:03.428Z,65.9
2019-02-14T11:18:53.187Z,66.1
2019-02-14T11:19:42.979Z,66.4
2019-02-14T11:20:33.862Z,66.7
2019-02-14T11:21:23.954Z,66.9
2019-02-14T11:22:13.692Z,67.1
2019-02-14T11:23:03.742Z,67.3
2019-02-14T11:23:54.077Z,67.4
2019-02-14T11:24:43.007Z,67.4
2019-02-14T11:25:33.464Z,67.4
2019-02-14T11:26:23.979Z,67.6
2019-02-14T11:27:14.292Z,67.8
2019-02-14T11:28:04.367Z,67.9
2019-02-14T11:28:53.646Z,68.1
2019-02-14T11:29:44.204Z,68.1
2019-02-14T11:30:34.249Z,68.1
2019-02-14T11:31:24.326Z,67.5
2019-02-14T11:32:13.819Z,66.9
2019-02-14T11:33:04.446Z,66.8
2019-02-14T11:33:54.207Z,66.8
2019-02-14T11:34:44.529Z,67.1
2019-02-14T11:35:34.342Z,67.6
2019-02-14T11:36:24.945Z,68.1
2019-02-14T11:37:14.646Z,68.4
2019-02-14T11:38:04.818Z,68.5
2019-02-14T11:38:55.167Z,68.4
2019-02-14T11:39:45.163Z,68.2
2019-02-14T11:40:35.218Z,68.2
2019-02-14T11:41:24.435Z,68.2
2019-02-14T11:42:15.063Z,68.3
2019-02-14T11:43:05.443Z,68.2
2019-02-14T11:43:54.896Z,68.3